Weather observations for the past three days for
Daviess County Airport
Imperial (Metric)
Date Time (edt) Wind (mph) Vis. (mi.) Weather Sky Cond. Temperature (ºF) Relative Humidity Wind Chill (°F) Heat Index (°F) Pressure Precipitation (in)
Air Dwpt 6 hour altimeter (in) sea level (mb) 1 hr 3 hr 6 hr
Max. Min.
01 16:35 S 6 10.00 Fair CLR 97 69.8 41% 104 30.01 0.0
01 16:15 SW 9 10.00 Fair CLR 96.8 69.8 42% 103 30.02 0.0
01 15:55 SW 10 10.00 Fair CLR 96.8 70.5 43% 104 30.02 0.0
01 15:35 S 5 10.00 Fair CLR 97 69.8 41% 104 30.03 0.0
01 15:15 SW 12 10.00 Fair CLR 96.6 70.3 43% 104 30.04 0.0
01 14:55 SW 6 10.00 Fair CLR 96.8 69.6 41% 103 30.04 0.0
01 14:35 SW 13 10.00 Fair CLR 96.1 70.7 44% 103 30.05 0.0
01 14:15 SW 10 10.00 Fair CLR 95.5 70.9 45% 103 30.05 0.0
01 13:55 SW 8 10.00 Fair CLR 95.4 71.4 95.4 70.7 46% 103 30.05 0.0
01 13:35 SW 10 G 16 10.00 Fair CLR 94.6 71.4 47% 102 30.06 0.0
01 13:15 SW 10 10.00 Fair CLR 93.6 71.8 49% 101 30.07 0.0
01 12:55 W 12 G 16 10.00 Fair CLR 93.2 72.9 52% 102 30.07 0.0
01 12:35 SW 10 10.00 Fair CLR 92.5 72.7 53% 101 30.08 0.0
01 12:15 W 8 10.00 Fair CLR 91.2 72.7 55% 99 30.08 0.0
01 11:55 SW 10 10.00 Fair CLR 90.1 72.7 57% 98 30.08 0.0
01 11:35 SW 7 10.00 Fair CLR 88.7 73.2 60% 97 30.08 0.0
01 11:15 SW 12 10.00 Fair CLR 88 72.9 61% 96 30.08 0.0
01 10:55 SW 13 G 17 10.00 Fair CLR 86.9 72.3 62% 94 30.08 0.0
01 10:35 SW 7 10.00 Fair CLR 85.8 72.5 65% 92 30.08 0.0
01 10:15 SW 9 10.00 Fair CLR 84.7 72.1 66% 91 30.09 0.0
01 09:35 SW 7 10.00 Fair CLR 81.9 71.6 71% 86 30.09 0.0
01 09:15 SW 7 10.00 Fair CLR 81 71.4 73% 85 30.09 0.0
01 08:55 SW 6 10.00 Fair CLR 79 71.4 78% 82 30.1 0.0
01 08:35 S 6 10.00 Fair CLR 76.8 71.8 85% 78 30.09 0.0
01 08:15 Calm 10.00 Fair CLR 72.3 70.7 95% 30.08 0.0
01 07:55 Calm 10.00 Fair CLR 70.7 69.8 79.2 69.3 97% 30.08 0.0
01 07:35 SE 5 10.00 Fair CLR 69.4 68.9 98% 30.07 0.0
01 07:15 Calm 10.00 Fair CLR 69.3 68.2 96% 30.06 0.0
01 06:55 Calm 10.00 Fair CLR 69.8 67.8 93% 30.06 0.0
01 06:35 SW 3 10.00 Fair CLR 73.6 68.4 84% 30.06 0.0
01 06:15 SW 6 10.00 Fair CLR 72.9 70.9 94% 30.05 0.0
01 05:55 Calm 10.00 Fair CLR 70 68 93% 30.05 0.0
01 05:35 Calm 10.00 Fair CLR 70.3 68 92% 30.05 0.0
01 05:15 Calm 10.00 Fair CLR 73.2 68.5 85% 30.05 0.0
01 04:55 SW 6 10.00 Fair CLR 75.4 69.8 83% 76 30.05 0.0
01 04:35 SW 6 10.00 Fair CLR 77 69.8 79% 79 30.04 0.0
01 04:15 SW 7 10.00 Fair CLR 77.2 69.8 78% 79 30.04 0.0
01 03:55 SW 8 10.00 Fair CLR 77 69.8 79% 79 30.04 0.0
01 03:35 S 7 10.00 Fair CLR 76.8 69.8 79% 78 30.04 0.0
01 03:15 S 7 10.00 Fair CLR 77.2 69.8 78% 79 30.04 0.0
01 02:55 SW 7 10.00 Fair CLR 77.5 69.8 77% 79 30.04 0.0
01 02:35 S 7 10.00 Fair CLR 77.4 69.4 77% 79 30.04 0.0
01 02:15 S 5 10.00 Fair CLR 78.4 69.3 74% 81 30.05 0.0
01 01:55 SW 7 10.00 Fair CLR 79.3 69.4 87.4 78.6 72% 82 30.05 0.0
01 01:35 SW 8 10.00 Fair CLR 79.7 69.4 71% 83 30.05 0.0
01 01:15 SW 7 10.00 Fair CLR 79.2 69.4 72% 82 30.05 0.0
01 00:55 SW 7 10.00 Fair CLR 79.3 69.3 71% 82 30.05 0.0
01 00:35 SW 7 10.00 Fair CLR 79.9 69.4 71% 83 30.04 0.0
01 00:15 SW 8 10.00 Fair CLR 81 69.4 68% 84 30.04 0.0
31 23:55 SW 9 10.00 Fair CLR 81.5 69.6 67% 85 30.04 0.0
31 23:35 SW 7 10.00 Fair CLR 80.1 69.8 71% 83 30.04 0.0
31 23:15 S 7 10.00 Fair CLR 79.3 69.6 72% 82 30.04 0.0
31 22:55 SW 6 10.00 Fair CLR 79.7 69.8 72% 83 30.04 0.0
31 22:35 SW 7 10.00 Fair CLR 79.2 70 74% 82 30.04 0.0
31 22:15 S 7 10.00 Fair CLR 78.8 70.2 75% 81 30.04 0.0
31 21:55 S 6 10.00 Fair CLR 78.8 70.2 75% 81 30.04 0.0
31 21:35 S 6 10.00 Fair CLR 79.2 70.3 74% 82 30.03 0.0
31 21:15 S 6 7.00 Fair CLR 80.2 70.2 71% 84 30.03 0.0
31 20:55 S 6 10.00 Fair CLR 79.9 70.7 74% 83 30.02 0.0
31 20:35 S 5 4.00 Fair with Haze CLR 82.6 70.3 67% 87 30.02 0.0
31 20:15 SW 6 4.00 Fair with Haze CLR 85.1 70.3 61% 90 30.02 0.0
31 19:35 S 6 10.00 Fair CLR 90.1 70.2 52% 96 30.01 0.0
31 19:15 S 6 10.00 Fair CLR 91.6 69.8 49% 97 30.01 0.0
31 18:55 S 10 10.00 Partly Cloudy SCT055 92.3 69.1 47% 97 30.02 0.0
31 18:35 SW 8 10.00 Mostly Cloudy BKN055 BKN075 93.2 70.7 48% 100 30.02 0.0
31 18:15 SW 8 10.00 Partly Cloudy SCT055 SCT075 93.9 71.4 48% 102 30.02 0.0
31 17:55 S 10 10.00 Partly Cloudy SCT055 SCT075 93.7 70.5 47% 100 30.02 0.0
31 17:35 S 12 10.00 Mostly Cloudy SCT055 BKN070 92.3 70.3 49% 98 30.02 0.0
31 17:15 S 9 10.00 Partly Cloudy SCT055 94.5 70.7 46% 101 30.02 0.0
31 16:55 S 9 10.00 Partly Cloudy SCT055 93.6 69.8 46% 100 30.03 0.0
31 16:35 SW 9 10.00 Partly Cloudy SCT055 93.9 70.7 47% 101 30.03 0.0
31 16:15 SW 6 10.00 Partly Cloudy SCT055 94.6 71.4 47% 102 30.04 0.0
31 15:55 SW 9 G 16 10.00 Partly Cloudy SCT055 93.7 71.1 48% 101 30.05 0.0
31 15:35 SW 12 G 17 10.00 Partly Cloudy SCT055 94.1 71.2 48% 102 30.05 0.0
31 15:15 SW 12 10.00 Partly Cloudy SCT050 93.6 70.5 47% 100 30.06 0.0
31 14:55 SW 8 10.00 Partly Cloudy SCT050 93.2 70.7 48% 100 30.06 0.0
31 14:35 SW 7 10.00 Partly Cloudy SCT050 93.2 71.6 50% 101 30.07 0.0
31 14:15 SW 9 10.00 Partly Cloudy SCT050 92.5 72.1 52% 100 30.08 0.0
31 13:55 SW 12 G 17 10.00 Partly Cloudy SCT046 SCT055 92.5 71.8 93.4 72.3 51% 100 30.08 0.0
31 13:35 S 10 10.00 Partly Cloudy SCT048 91.4 72.3 54% 99 30.09 0.0
31 13:15 W 6 10.00 Partly Cloudy SCT046 91.9 72.7 53% 100 30.1 0.0
31 12:55 SW 12 10.00 Fair CLR 91.4 72.9 55% 100 30.1 0.0
31 12:35 W 9 10.00 Fair CLR 90.3 72.7 56% 98 30.1 0.0
31 12:15 SW 10 10.00 Fair CLR 89.8 72.9 58% 98 30.1 0.0
31 11:55 SW 10 G 17 10.00 Fair CLR 88.9 73 60% 97 30.1 0.0
31 11:35 SW 6 10.00 Fair CLR 87.4 72.5 61% 95 30.1 0.0
31 11:15 SW 9 10.00 Fair CLR 86.4 72.5 63% 93 30.11 0.0
31 10:55 SW 9 10.00 Fair CLR 85.5 72.3 65% 92 30.11 0.0
31 10:35 SW 7 10.00 Fair CLR 84.9 72.5 66% 91 30.1 0.0
31 10:15 SW 9 10.00 Fair CLR 83.7 71.8 68% 89 30.1 0.0
31 09:55 SW 7 10.00 Fair CLR 82.4 71.6 70% 87 30.1 0.0
31 09:35 SW 6 10.00 Partly Cloudy SCT060 81.3 71.6 72% 86 30.1 0.0
31 09:15 SW 8 10.00 Mostly Cloudy BKN060 79 71.6 78% 82 30.09 0.0
31 08:55 S 7 10.00 Mostly Cloudy BKN060 76.5 70.9 83% 78 30.08 0.0
31 08:35 S 6 10.00 Partly Cloudy SCT060 74.8 70.5 86% 30.08 0.0
31 08:15 S 5 10.00 Fair CLR 73.4 69.8 89% 30.08 0.0
31 07:55 S 3 10.00 Fair CLR 72 69.4 74.8 69.4 92% 30.07 0.0
31 07:35 S 3 10.00 Fair CLR 73.2 69.4 88% 30.06 0.0
31 07:15 S 7 10.00 Fair CLR 74.5 69.8 85% 30.06 0.0
31 06:55 S 8 10.00 Fair CLR 74.8 69.8 84% 30.05 0.0
31 06:35 S 8 10.00 Fair CLR 74.5 69.8 85% 30.05 0.0
31 06:15 S 8 10.00 Fair CLR 73.9 69.3 85% 30.05 0.0
31 05:55 S 7 10.00 Fair CLR 74.3 69.3 84% 30.04 0.0
31 05:35 S 7 10.00 Fair CLR 73.2 68.9 86% 30.04 0.0
31 05:15 S 7 10.00 Fair CLR 72.3 68.9 89% 30.05 0.0
31 04:55 S 7 10.00 Fair CLR 71.2 68.5 91% 30.05 0.0
31 04:35 S 5 10.00 Fair CLR 69.8 68 94% 30.05 0.0
31 04:15 SE 3 10.00 Fair CLR 69.8 67.8 93% 30.05 0.0
31 03:55 E 3 10.00 Fair CLR 70.7 68 91% 30.05 0.0
31 03:35 E 3 10.00 Fair CLR 71.6 68.5 90% 30.05 0.0
31 03:15 Calm 10.00 Fair CLR 72 68.5 89% 30.05 0.0
31 02:55 S 3 10.00 Fair CLR 73 68.5 86% 30.05 0.0
31 02:35 S 5 10.00 Fair CLR 72.7 68.4 86% 30.05 0.0
31 02:15 S 6 10.00 Fair CLR 72.5 68.5 87% 30.05 0.0
31 01:55 S 5 10.00 Fair CLR 71.6 68.4 85.1 70.2 90% 30.05 0.0
31 01:35 SE 3 10.00 Fair CLR 71.2 68.2 90% 30.06 0.0
31 01:15 SE 3 10.00 Fair CLR 72.1 68.4 88% 30.06 0.0
31 00:55 S 5 10.00 Fair CLR 71.8 68.4 89% 30.05 0.0
31 00:35 S 3 10.00 Fair CLR 72 68.4 89% 30.05 0.0
31 00:15 S 3 10.00 Fair CLR 72 68.5 89% 30.05 0.0
30 23:55 SE 3 10.00 Fair CLR 71.8 67.6 87% 30.05 0.0
30 23:35 Calm 10.00 Fair CLR 71.8 67.5 86% 30.05 0.0
30 23:15 Calm 10.00 Fair CLR 70.5 67.3 90% 30.05 0.0
30 22:55 Calm 10.00 Fair CLR 70.5 66.9 88% 30.05 0.0
30 22:35 Calm 10.00 Fair CLR 72.3 67.1 84% 30.05 0.0
30 22:15 Calm 10.00 Fair CLR 72.9 67.1 82% 30.05 0.0
30 21:55 Calm 10.00 Fair CLR 72.1 67.1 84% 30.05 0.0
30 21:35 S 3 10.00 Fair CLR 73.8 67.1 80% 30.04 0.0
30 21:15 Calm 10.00 Fair CLR 73.9 67.5 80% 30.03 0.0
30 20:55 Calm 10.00 Fair CLR 76.1 68 76% 77 30.03 0.0
30 20:35 Calm 10.00 Fair CLR 76.6 67.5 73% 78 30.02 0.0
30 20:15 Calm 10.00 Fair CLR 81.1 66.6 61% 83 30.02 0.0
30 19:55 SW 3 10.00 Fair CLR 85.5 65.1 92.3 85.5 51% 87 30.02 0.0
30 19:35 SW 5 10.00 Fair CLR 87.3 64.4 47% 89 30.03 0.0
30 19:15 SW 7 10.00 Fair CLR 89.1 63.1 42% 90 30.03 0.0
30 18:55 SW 7 10.00 Fair CLR 89.6 62.4 40% 90 30.03 0.0
30 18:35 SW 7 10.00 Fair CLR 90.7 63.1 40% 92 30.03 0.0
30 18:15 S 8 10.00 Fair CLR 91.4 61.7 37% 92 30.03 0.0
30 17:55 SW 9 10.00 Fair CLR 91.8 63.1 39% 93 30.03 0.0
30 17:35 SW 7 10.00 Fair CLR 91.9 62.6 38% 93 30.03 0.0
30 17:15 S 9 10.00 Partly Cloudy SCT070 91.9 63.3 39% 93 30.03 0.0
30 16:55 SW 9 10.00 Partly Cloudy SCT070 91.9 63.5 39% 93 30.04 0.0
30 16:35 S 8 10.00 Partly Cloudy SCT070 91.8 62.6 38% 93 30.05 0.0
30 16:15 SW 8 10.00 Fair CLR 91.2 61.7 37% 92 30.05 0.0
30 15:55 S 10 10.00 Fair CLR 91.6 62.4 38% 92 30.06 0.0
30 15:35 S 7 G 16 10.00 Fair CLR 91.8 63.1 39% 93 30.06 0.0
30 15:15 S 5 G 16 10.00 Fair CLR 91.4 63.3 39% 93 30.07 0.0
30 14:55 S 10 G 16 10.00 Fair CLR 91 64 41% 93 30.08 0.0
30 14:35 SW 8 10.00 Fair CLR 90.9 66.2 44% 94 30.08 0.0
30 14:15 SW 6 10.00 Fair CLR 89.8 67.1 47% 93 30.09 0.0
30 13:55 S 12 10.00 Partly Cloudy SCT055 90 66.4 90 65.3 46% 93 30.1 0.0
30 13:35 S 6 10.00 Fair CLR 89.8 67.1 47% 93 30.1 0.0
30 13:15 SW 8 10.00 Fair CLR 89.2 67.5 49% 93 30.11 0.0
30 12:55 W 7 10.00 Fair CLR 88 67.6 51% 91 30.12 0.0
30 12:35 SW 7 10.00 Fair CLR 87.8 67.5 51% 91 30.12 0.0
30 12:15 SW 5 10.00 Fair CLR 86.9 67.5 52% 90 30.12 0.0
30 11:55 SW 5 10.00 Fair CLR 86.5 67.6 53% 90 30.11 0.0
30 11:35 S 8 10.00 Fair CLR 85.1 67.1 55% 88 30.11 0.0
30 11:15 S 9 10.00 Fair CLR 84.2 66.2 55% 87 30.1 0.0
30 10:55 S 8 10.00 Fair CLR 82 66.2 59% 84 30.1 0.0
30 10:35 S 10 10.00 Fair CLR 81.7 66 59% 84 30.1 0.0
30 10:15 S 8 10.00 Fair CLR 80.8 66.4 62% 83 30.1 0.0
30 09:55 S 8 10.00 Fair CLR 79 66 65% 81 30.1 0.0
30 09:35 S 10 10.00 Fair CLR 77.4 65.7 67% 79 30.09 0.0
30 09:15 S 8 10.00 Fair CLR 75.6 66 72% 77 30.09 0.0
30 08:55 S 7 10.00 Fair CLR 71.8 65.8 82% 30.1 0.0
30 08:35 S 6 10.00 Fair CLR 69.8 66.2 88% 30.1 0.0
30 08:15 SE 5 10.00 Fair CLR 66.7 66 98% 30.09 0.0
30 07:55 SE 5 10.00 Fair CLR 65.1 64.4 65.3 60.6 98% 30.08 0.0
30 07:35 SE 3 10.00 Fair CLR 64.4 64 99% 30.08 0.0
30 07:15 Calm 10.00 Fair CLR 63.7 63.7 100% 30.08 0.0
30 06:55 SE 3 10.00 Fair CLR 63.5 63.5 100% 30.07 0.0
30 06:35 SE 3 10.00 Fair CLR 62.1 61.9 99% 30.07 0.0
30 06:15 SE 3 7.00 Fair CLR 61.2 61.2 100% 30.07 0.0
30 05:55 Calm 10.00 Fair CLR 60.6 60.4 99% 30.08 0.0
30 05:35 Calm 10.00 Fair CLR 61.5 61.5 100% 30.08 0.0
30 05:15 Calm 7.00 Fair CLR 62.2 62.2 100% 30.08 0.0
30 04:55 Calm 7.00 Fair CLR 61.9 61.9 100% 30.08 0.0
30 04:35 Calm 10.00 Fair CLR 62.6 61.9 98% 30.08 0.0
30 03:55 Calm 10.00 Fair CLR 64.4 63.3 96% 30.08 0.0
30 03:35 Calm 10.00 Fair CLR 64.2 63.1 96% 30.08 0.0
30 03:15 Calm 10.00 Fair CLR 64.4 63.3 96% 30.09 0.0
30 02:55 Calm 10.00 Fair CLR 63.9 63 97% 30.1 0.0
30 02:35 Calm 10.00 Fair CLR 64.6 63.9 98% 30.1 0.0
30 02:15 Calm 10.00 Fair CLR 63.9 63 97% 30.11 0.0
30 01:55 Calm 10.00 Fair CLR 64.6 63.5 79.5 63.9 96% 30.11 0.0
30 01:35 Calm 10.00 Fair CLR 64.4 63.3 96% 30.11 0.0
30 01:15 Calm 10.00 Fair CLR 65.8 64 94% 30.1 0.0
30 00:55 Calm 10.00 Fair CLR 66.4 64.2 93% 30.1 0.0
30 00:35 Calm 10.00 Fair CLR 67.3 64.9 92% 30.1 0.0
30 00:15 S 5 10.00 Fair CLR 66.7 64.4 92% 30.09 0.0
29 23:55 S 3 10.00 Fair CLR 67.1 64.4 91% 30.1 0.0
29 23:35 S 3 10.00 Fair CLR 67.1 64.4 91% 30.09 0.0
29 23:15 Calm 10.00 Fair CLR 67.1 64.6 92% 30.09 0.0
29 22:55 Calm 10.00 Fair CLR 68.9 64.9 87% 30.09 0.0
29 22:35 S 3 10.00 Fair CLR 68.4 64.6 88% 30.08 0.0
29 22:15 S 3 10.00 Fair CLR 68.4 65.3 90% 30.08 0.0
29 21:55 S 3 10.00 Fair CLR 69.3 65.1 87% 30.08 0.0
29 21:35 Calm 10.00 Fair CLR 70.7 65.7 84% 30.07 0.0
29 21:15 Calm 10.00 Fair CLR 70.7 66.2 86% 30.06 0.0
29 20:55 S 3 10.00 Fair CLR 71.8 65.7 81% 30.06 0.0
29 20:35 Calm 10.00 Fair CLR 74.1 67.3 79% 30.06 0.0
29 20:15 Calm 10.00 Fair CLR 76.8 67.1 72% 79 30.07 0.0
29 19:55 Calm 10.00 Fair CLR 79.2 66.6 87.1 77.2 65% 81 30.07 0.0
29 19:35 Calm 10.00 Fair CLR 77.5 67.8 72% 79 30.08 0.0
29 19:15 Calm 10.00 Fair CLR 81.5 63.3 54% 83 30.08 0.0
29 18:55 Calm 10.00 Fair CLR 83.8 61.2 46% 84 30.08 0.0
29 18:35 S 5 10.00 Fair CLR 83.8 60.1 45% 84 30.08 0.0
29 18:15 S 3 10.00 Fair CLR 85.8 59.7 41% 86 30.08 0.0
29 17:55 SW 6 10.00 Fair CLR 85.1 59.9 43% 85 30.08 0.0
29 17:35 SW 5 10.00 Fair CLR 84.9 59.4 42% 85 30.1 0.0
29 17:15 S 3 10.00 Fair CLR 85.1 61 44% 85 30.1 0.0
29 16:55 SW 6 10.00 Partly Cloudy SCT060 84.9 60.6 44% 85 30.1 0.0
Date Time (edt) Wind (mph) Vis. (mi.) Weather Sky Cond. Air Dwpt Max. Min. Relative Humidity Wind Chill (°F) Heat Index (°F) altimeter (in) sea level (mb) 1 hr 3 hr 6 hr
6 hour
Temperature (ºF) Pressure Precipitation (in)